createdAt,value
2022-08-02T00:02:57.002Z,79.11
2022-08-02T00:06:00.096Z,79.14
2022-08-02T00:09:04.850Z,79.19
2022-08-02T00:12:08.963Z,79.23
2022-08-02T00:15:16.169Z,79.23
2022-08-02T00:18:19.473Z,79.28
2022-08-02T00:21:22.384Z,79.36
2022-08-02T00:24:30.638Z,79.43
2022-08-02T00:27:34.281Z,79.49
2022-08-02T00:30:37.841Z,79.56
2022-08-02T00:34:26.441Z,79.63
2022-08-02T00:37:03.768Z,79.72
2022-08-02T00:40:07.925Z,79.77
2022-08-02T00:43:11.868Z,79.84
2022-08-02T00:46:16.303Z,79.84
2022-08-02T00:49:21.150Z,79.92
2022-08-02T00:52:24.921Z,79.95
2022-08-02T00:55:30.939Z,79.95
2022-08-02T00:58:34.636Z,79.98
2022-08-02T01:01:57.479Z,80.06
2022-08-02T01:05:01.108Z,80.11
2022-08-02T01:08:04.266Z,80.08
2022-08-02T01:11:07.608Z,80.21
2022-08-02T01:14:13.176Z,80.21
2022-08-02T01:17:23.707Z,80.18
2022-08-02T01:20:35.341Z,80.17
2022-08-02T01:23:38.135Z,80.11
2022-08-02T01:26:49.744Z,80.12
2022-08-02T01:29:59.016Z,80.16
2022-08-02T01:33:05.052Z,80.22
2022-08-02T01:36:12.186Z,80.20
2022-08-02T01:39:27.349Z,80.21
2022-08-02T01:42:38.656Z,80.25
2022-08-02T01:45:42.826Z,80.23
2022-08-02T01:48:47.626Z,80.26
2022-08-02T01:52:11.385Z,80.25
2022-08-02T01:55:23.277Z,80.29
2022-08-02T01:58:40.431Z,80.28
2022-08-02T02:01:46.066Z,80.30
2022-08-02T02:04:51.722Z,80.31
2022-08-02T02:08:00.268Z,80.40
2022-08-02T02:12:11.897Z,80.45
2022-08-02T02:14:29.537Z,80.51
2022-08-02T02:18:11.117Z,80.46
2022-08-02T02:20:57.117Z,80.53
2022-08-02T02:24:00.210Z,80.55
2022-08-02T02:27:04.276Z,80.55
2022-08-02T02:30:07.878Z,80.59
2022-08-02T02:33:13.781Z,80.65
2022-08-02T02:36:22.355Z,80.70
2022-08-02T02:39:28.545Z,80.74
2022-08-02T02:42:33.683Z,80.75
2022-08-02T02:45:38.125Z,80.78
2022-08-02T02:48:41.975Z,80.84
2022-08-02T02:51:46.098Z,80.79
2022-08-02T02:54:50.789Z,80.83
2022-08-02T02:57:55.265Z,80.83
2022-08-02T03:01:16.870Z,80.81
2022-08-02T03:04:21.208Z,80.81
2022-08-02T03:07:24.458Z,80.78
2022-08-02T03:10:28.599Z,80.79
2022-08-02T03:13:33.191Z,80.84
2022-08-02T03:16:50.825Z,80.79
2022-08-02T03:19:53.831Z,80.85
2022-08-02T03:22:56.743Z,80.81
2022-08-02T03:26:00.208Z,80.85
2022-08-02T03:29:10.292Z,80.83
2022-08-02T03:32:14.362Z,80.86
2022-08-02T03:35:23.731Z,80.86
2022-08-02T03:38:28.873Z,80.86
2022-08-02T03:41:35.763Z,80.85
2022-08-02T03:44:39.749Z,80.85
2022-08-02T03:47:44.202Z,80.84
2022-08-02T03:50:48.567Z,80.88
2022-08-02T03:53:52.027Z,80.91
2022-08-02T03:56:55.452Z,80.89
2022-08-02T03:59:58.511Z,80.90
2022-08-02T04:03:01.432Z,80.92
2022-08-02T04:06:05.051Z,80.94
2022-08-02T04:09:08.054Z,80.88
2022-08-02T04:12:11.124Z,80.90
2022-08-02T04:15:15.125Z,80.90
2022-08-02T04:18:22.450Z,80.87
2022-08-02T04:21:49.093Z,80.79
2022-08-02T04:24:56.237Z,80.79
2022-08-02T04:28:16.675Z,80.74
2022-08-02T04:31:21.529Z,80.71
2022-08-02T04:34:24.679Z,80.69
2022-08-02T04:37:27.683Z,80.67
2022-08-02T04:40:30.621Z,80.62
2022-08-02T04:43:33.643Z,80.63
2022-08-02T04:46:37.117Z,80.66
2022-08-02T04:49:40.185Z,80.64
2022-08-02T04:52:45.893Z,80.61
2022-08-02T04:55:49.000Z,80.52
2022-08-02T04:58:51.922Z,80.46
2022-08-02T05:01:54.825Z,80.42
2022-08-02T05:04:57.700Z,80.39
2022-08-02T05:08:00.999Z,80.37
2022-08-02T05:11:03.901Z,80.38
2022-08-02T05:14:06.812Z,80.35
2022-08-02T05:17:09.693Z,80.20
2022-08-02T05:20:13.805Z,80.21
2022-08-02T05:23:16.672Z,80.21
2022-08-02T05:26:19.698Z,80.24
2022-08-02T05:29:23.228Z,80.14
2022-08-02T05:32:26.575Z,80.17
2022-08-02T05:35:29.466Z,80.22
2022-08-02T05:38:32.716Z,80.28
2022-08-02T05:41:40.460Z,80.24
2022-08-02T05:44:43.310Z,80.30
2022-08-02T05:47:46.314Z,80.31
2022-08-02T05:50:53.048Z,80.38
2022-08-02T05:54:02.200Z,80.38
2022-08-02T05:57:12.642Z,80.31
2022-08-02T06:00:16.282Z,80.30
2022-08-02T06:03:25.449Z,80.30
2022-08-02T06:06:32.389Z,80.15
2022-08-02T06:09:36.128Z,80.05
2022-08-02T06:12:47.907Z,80.03
2022-08-02T06:15:53.823Z,80.02
2022-08-02T06:18:58.869Z,80.07
2022-08-02T06:22:33.240Z,79.94
2022-08-02T06:25:48.400Z,80.01
2022-08-02T06:28:55.697Z,79.98
2022-08-02T06:31:59.322Z,79.93
2022-08-02T06:35:04.618Z,79.87
2022-08-02T06:38:15.882Z,79.82
2022-08-02T06:41:19.801Z,79.66
2022-08-02T06:47:45.980Z,79.69
2022-08-02T06:50:49.039Z,79.78
2022-08-02T06:53:52.136Z,79.76
2022-08-02T06:56:56.179Z,79.86
2022-08-02T07:00:06.024Z,79.74
2022-08-02T07:03:09.088Z,79.76
2022-08-02T07:06:12.176Z,79.72
2022-08-02T07:09:22.391Z,79.68
2022-08-02T07:12:25.499Z,79.60
2022-08-02T07:15:34.914Z,79.64
2022-08-02T07:18:37.844Z,79.59
2022-08-02T07:21:56.947Z,79.44
2022-08-02T07:25:03.919Z,79.27
2022-08-02T07:28:15.306Z,79.16
2022-08-02T07:31:25.214Z,79.01
2022-08-02T07:34:28.250Z,78.82
2022-08-02T07:37:54.140Z,78.70
2022-08-02T07:40:56.952Z,78.79
2022-08-02T07:43:59.869Z,78.60
2022-08-02T07:47:03.463Z,78.39
2022-08-02T07:50:08.329Z,78.33
2022-08-02T07:53:11.269Z,78.29
2022-08-02T07:56:14.247Z,78.41
2022-08-02T07:59:17.195Z,78.26
2022-08-02T08:02:20.349Z,78.15
2022-08-02T08:05:23.929Z,77.86
2022-08-02T08:08:27.145Z,77.75
2022-08-02T08:11:30.219Z,77.61
2022-08-02T08:14:33.400Z,77.04
2022-08-02T08:17:38.857Z,76.84
2022-08-02T08:20:41.871Z,76.59
2022-08-02T08:23:45.610Z,76.84
2022-08-02T08:26:48.727Z,76.65
2022-08-02T08:29:56.275Z,76.72
2022-08-02T08:32:59.286Z,76.72
2022-08-02T08:36:02.726Z,76.76
2022-08-02T08:39:06.278Z,76.30
2022-08-02T08:42:09.882Z,76.37
2022-08-02T08:45:13.706Z,76.46
2022-08-02T08:48:30.158Z,76.29
2022-08-02T08:51:42.146Z,76.15
2022-08-02T08:54:48.447Z,76.11
2022-08-02T08:57:52.822Z,76.40
2022-08-02T09:00:55.959Z,76.70
2022-08-02T09:03:59.181Z,76.77
2022-08-02T09:07:02.164Z,76.66
2022-08-02T09:10:33.599Z,76.43
2022-08-02T09:13:44.717Z,76.12
2022-08-02T09:16:49.254Z,76.14
2022-08-02T09:20:08.053Z,75.62
2022-08-02T09:23:12.370Z,75.55
2022-08-02T09:26:18.856Z,75.39
2022-08-02T09:29:24.209Z,74.82
2022-08-02T09:32:29.797Z,74.53
2022-08-02T09:36:05.979Z,74.51
2022-08-02T09:39:03.016Z,74.72
2022-08-02T09:42:10.846Z,74.45
2022-08-02T09:45:14.328Z,74.20
2022-08-02T09:48:17.826Z,74.07
2022-08-02T09:51:26.108Z,74.38
2022-08-02T09:54:29.802Z,73.72
2022-08-02T09:57:38.749Z,72.86
2022-08-02T10:00:53.322Z,72.98
2022-08-02T10:04:00.348Z,72.93
2022-08-02T10:07:04.503Z,72.47
2022-08-02T10:10:08.406Z,72.49
2022-08-02T10:13:12.677Z,72.74
2022-08-02T10:16:25.252Z,73.74
2022-08-02T10:20:01.248Z,73.72
2022-08-02T10:22:52.598Z,73.94
2022-08-02T10:25:57.473Z,73.25
2022-08-02T10:29:03.532Z,72.69
2022-08-02T10:32:38.140Z,73.22
2022-08-02T10:35:42.082Z,73.82
2022-08-02T10:38:46.450Z,73.68
2022-08-02T10:41:53.275Z,74.23
2022-08-02T10:45:10.986Z,74.21
2022-08-02T10:48:17.085Z,74.43
2022-08-02T10:51:24.372Z,73.60
2022-08-02T10:54:42.754Z,73.14
2022-08-02T10:57:48.703Z,73.83
2022-08-02T11:00:55.907Z,73.31
2022-08-02T11:04:00.655Z,72.26
2022-08-02T11:07:17.325Z,70.79
2022-08-02T11:10:31.105Z,70.32
2022-08-02T11:14:04.840Z,68.93
2022-08-02T11:17:18.395Z,67.85
2022-08-02T11:20:28.999Z,67.92
2022-08-02T11:23:44.480Z,67.47
2022-08-02T11:26:49.399Z,67.39
2022-08-02T11:29:52.666Z,66.57
2022-08-02T11:33:01.249Z,66.74
2022-08-02T11:36:07.482Z,66.60
2022-08-02T11:39:12.977Z,66.79
2022-08-02T11:42:18.980Z,67.62
2022-08-02T11:45:29.283Z,68.60
2022-08-02T11:48:37.941Z,67.83
2022-08-02T11:52:00.711Z,66.83
2022-08-02T11:55:05.077Z,66.83
2022-08-02T11:58:11.726Z,66.31
2022-08-02T12:01:16.146Z,67.21
2022-08-02T12:04:22.430Z,66.88
2022-08-02T12:07:35.323Z,65.92
2022-08-02T12:10:48.729Z,65.51
2022-08-02T12:13:56.550Z,64.51
2022-08-02T12:17:19.215Z,63.85
2022-08-02T12:20:36.045Z,62.37
2022-08-02T12:23:59.416Z,61.45
2022-08-02T12:27:04.576Z,60.58
2022-08-02T12:30:12.483Z,60.23
2022-08-02T12:33:15.888Z,60.68
2022-08-02T12:36:21.392Z,62.06
2022-08-02T12:39:44.328Z,62.15
2022-08-02T12:43:17.795Z,61.60
2022-08-02T12:46:22.378Z,62.61
2022-08-02T12:49:25.566Z,62.23
2022-08-02T12:52:28.458Z,62.63
2022-08-02T12:55:59.379Z,62.44
2022-08-02T12:58:54.807Z,63.31
2022-08-02T13:02:02.193Z,63.28
2022-08-02T13:05:05.927Z,63.20
2022-08-02T13:08:08.872Z,63.46
2022-08-02T13:11:12.149Z,62.64
2022-08-02T13:14:15.882Z,63.51
2022-08-02T13:17:18.917Z,63.01
2022-08-02T13:20:21.905Z,63.46
2022-08-02T13:23:53.864Z,64.65
2022-08-02T13:26:50.375Z,65.33
2022-08-02T13:29:55.233Z,64.76
2022-08-02T13:33:01.115Z,65.57
2022-08-02T13:36:04.794Z,65.36
2022-08-02T13:39:12.764Z,65.00
2022-08-02T13:42:16.949Z,65.34
2022-08-02T13:45:20.183Z,65.45
2022-08-02T13:48:23.068Z,65.92
2022-08-02T13:51:26.724Z,65.57
2022-08-02T13:54:29.688Z,63.79
2022-08-02T13:57:32.628Z,63.45
2022-08-02T14:00:36.337Z,63.09
2022-08-02T14:04:07.524Z,64.43
2022-08-02T14:07:02.227Z,63.15
2022-08-02T14:10:05.609Z,61.99
2022-08-02T14:13:08.774Z,61.73
2022-08-02T14:16:11.742Z,62.42
2022-08-02T14:19:16.700Z,63.06
2022-08-02T14:22:20.080Z,61.80
2022-08-02T14:25:23.058Z,62.84
2022-08-02T14:28:25.966Z,62.74
2022-08-02T14:31:29.986Z,61.62
2022-08-02T14:34:32.877Z,62.72
2022-08-02T14:37:35.969Z,63.75
2022-08-02T14:40:38.914Z,62.95
2022-08-02T14:44:00.249Z,61.25
2022-08-02T14:47:03.191Z,61.20
2022-08-02T14:50:06.357Z,61.80
2022-08-02T14:53:12.834Z,61.88
2022-08-02T14:56:16.106Z,62.02
2022-08-02T14:59:19.046Z,62.47
2022-08-02T15:02:22.014Z,62.83
2022-08-02T15:05:24.977Z,62.26
2022-08-02T15:08:27.962Z,62.08
2022-08-02T15:11:30.845Z,62.09
2022-08-02T15:14:52.351Z,63.28
2022-08-02T15:17:55.292Z,63.18
2022-08-02T15:20:58.201Z,63.68
2022-08-02T15:24:01.125Z,62.43
2022-08-02T15:27:04.226Z,62.49
2022-08-02T15:30:07.521Z,63.06
2022-08-02T15:33:10.446Z,63.07
2022-08-02T15:36:13.320Z,62.85
2022-08-02T15:39:16.214Z,63.98
2022-08-02T15:42:20.265Z,63.58
2022-08-02T15:45:35.255Z,63.99
2022-08-02T15:48:39.119Z,64.65
2022-08-02T15:51:41.971Z,64.90
2022-08-02T15:54:44.835Z,65.04
2022-08-02T15:57:47.760Z,64.50
2022-08-02T16:00:50.745Z,64.51
2022-08-02T16:03:53.625Z,64.62
2022-08-02T16:06:56.532Z,65.05
2022-08-02T16:09:59.613Z,65.21
2022-08-02T16:13:21.603Z,65.73
2022-08-02T16:16:32.936Z,65.67
2022-08-02T16:19:48.204Z,65.28
2022-08-02T16:22:52.770Z,65.51
2022-08-02T16:25:55.676Z,65.46
2022-08-02T16:28:59.733Z,65.41
2022-08-02T16:32:02.985Z,66.48
2022-08-02T16:35:07.451Z,67.10
2022-08-02T16:38:11.405Z,66.40
2022-08-02T16:41:16.283Z,66.39
2022-08-02T16:44:26.721Z,66.39
2022-08-02T16:47:42.710Z,66.03
2022-08-02T16:50:47.281Z,66.26
2022-08-02T16:54:00.053Z,67.04
2022-08-02T16:57:05.089Z,66.73
2022-08-02T17:00:10.196Z,66.62
2022-08-02T17:03:13.840Z,66.94
2022-08-02T17:06:16.754Z,67.32
2022-08-02T17:10:01.618Z,67.21
2022-08-02T17:12:44.265Z,66.95
2022-08-02T17:16:15.752Z,67.51
2022-08-02T17:19:10.012Z,68.10
2022-08-02T17:22:13.218Z,68.21
2022-08-02T17:25:21.498Z,68.85
2022-08-02T17:28:32.070Z,68.84
2022-08-02T17:32:05.741Z,69.33
2022-08-02T17:35:12.029Z,69.49
2022-08-02T17:38:26.356Z,69.79
2022-08-02T17:41:38.101Z,69.51
2022-08-02T17:45:06.959Z,69.33
2022-08-02T17:48:21.403Z,69.62
2022-08-02T17:52:48.588Z,70.11
2022-08-02T17:54:56.113Z,70.48
2022-08-02T17:58:00.454Z,70.56
2022-08-02T18:01:09.249Z,70.69
2022-08-02T18:04:28.414Z,70.72
2022-08-02T18:07:49.557Z,70.82
2022-08-02T18:10:55.831Z,70.91
2022-08-02T18:13:58.872Z,70.92
2022-08-02T18:17:04.759Z,70.93
2022-08-02T18:20:10.935Z,71.13
2022-08-02T18:23:14.894Z,71.27
2022-08-02T18:26:20.815Z,71.48
2022-08-02T18:29:24.778Z,71.47
2022-08-02T18:33:53.750Z,71.57
2022-08-02T18:35:56.167Z,71.67
2022-08-02T18:39:08.275Z,71.84
2022-08-02T18:42:11.969Z,71.88
2022-08-02T18:45:20.541Z,71.91
2022-08-02T18:48:23.451Z,71.91
2022-08-02T18:51:36.480Z,72.00
2022-08-02T18:54:39.741Z,72.09
2022-08-02T18:58:04.373Z,72.31
2022-08-02T19:01:14.776Z,72.33
2022-08-02T19:04:27.166Z,72.36
2022-08-02T19:07:50.923Z,72.47
2022-08-02T19:10:56.432Z,72.51
2022-08-02T19:14:00.527Z,72.57
2022-08-02T19:17:53.496Z,72.68
2022-08-02T19:20:27.442Z,72.80
2022-08-02T19:23:32.893Z,72.98
2022-08-02T19:26:36.027Z,73.05
2022-08-02T19:29:42.863Z,73.16
2022-08-02T19:32:59.004Z,73.11
2022-08-02T19:36:09.875Z,73.26
2022-08-02T19:39:17.678Z,73.29
2022-08-02T19:42:22.415Z,73.27
2022-08-02T19:45:49.255Z,73.27
2022-08-02T19:48:48.585Z,73.28
2022-08-02T19:51:55.517Z,73.45
2022-08-02T19:55:01.892Z,73.54
2022-08-02T19:58:23.617Z,73.63
2022-08-02T20:01:36.829Z,73.86
2022-08-02T20:04:52.992Z,74.01
2022-08-02T20:07:57.228Z,74.03
2022-08-02T20:11:00.747Z,74.16
2022-08-02T20:14:07.550Z,74.10
2022-08-02T20:17:14.155Z,74.01
2022-08-02T20:20:17.756Z,74.07
2022-08-02T20:23:32.728Z,74.04
2022-08-02T20:26:47.788Z,74.01
2022-08-02T20:29:51.718Z,74.02
2022-08-02T20:33:02.545Z,74.06
2022-08-02T20:36:23.647Z,74.13
2022-08-02T20:39:43.665Z,74.23
2022-08-02T20:42:47.745Z,74.30
2022-08-02T20:45:51.573Z,74.24
2022-08-02T20:48:57.468Z,74.23
2022-08-02T20:52:04.560Z,74.25
2022-08-02T20:55:27.890Z,74.15
2022-08-02T20:58:33.993Z,74.21
2022-08-02T21:01:37.433Z,74.20
2022-08-02T21:04:42.064Z,74.30
2022-08-02T21:07:47.859Z,74.35
2022-08-02T21:11:13.892Z,74.40
2022-08-02T21:14:18.752Z,74.42
2022-08-02T21:17:27.529Z,74.47
2022-08-02T21:20:45.658Z,74.58
2022-08-02T21:23:54.691Z,74.63
2022-08-02T21:26:58.408Z,74.78
2022-08-02T21:30:01.746Z,74.85
2022-08-02T21:33:04.742Z,74.88
2022-08-02T21:36:21.077Z,74.92
2022-08-02T21:39:24.516Z,74.98
2022-08-02T21:42:27.413Z,75.07
2022-08-02T21:45:30.875Z,75.10
2022-08-02T21:48:33.997Z,75.17
2022-08-02T21:51:42.987Z,75.14
2022-08-02T21:55:04.206Z,75.22
2022-08-02T21:58:07.320Z,75.13
2022-08-02T22:01:10.277Z,75.11
2022-08-02T22:04:15.367Z,75.11
2022-08-02T22:07:23.636Z,75.06
2022-08-02T22:10:26.955Z,74.93
2022-08-02T22:13:38.595Z,74.87
2022-08-02T22:16:49.991Z,74.76
2022-08-02T22:19:54.459Z,74.67
2022-08-02T22:22:57.573Z,74.68
2022-08-02T22:26:00.674Z,74.74
2022-08-02T22:29:04.737Z,74.83
2022-08-02T22:32:08.568Z,74.87
2022-08-02T22:35:11.473Z,74.92
2022-08-02T22:42:01.312Z,74.89
2022-08-02T22:45:00.922Z,74.93
2022-08-02T22:48:03.844Z,74.98
2022-08-02T22:51:07.022Z,75.03
2022-08-02T22:57:33.373Z,75.14
2022-08-02T22:59:10.012Z,75.05
2022-08-02T23:00:56.263Z,75.17
2022-08-02T23:03:59.135Z,75.15
2022-08-02T23:07:02.213Z,75.11
2022-08-02T23:10:06.147Z,75.08
2022-08-02T23:13:09.223Z,75.04
2022-08-02T23:16:30.437Z,75.05
2022-08-02T23:19:51.610Z,74.97
2022-08-02T23:22:55.671Z,74.97
2022-08-02T23:25:58.729Z,74.98
2022-08-02T23:29:01.681Z,75.02
2022-08-02T23:32:04.743Z,75.00
2022-08-02T23:35:09.491Z,74.98
2022-08-02T23:38:19.767Z,75.06
2022-08-02T23:41:22.905Z,75.10
2022-08-02T23:44:26.995Z,75.13
2022-08-02T23:47:30.688Z,75.20
2022-08-02T23:50:33.538Z,75.34
2022-08-02T23:53:36.475Z,75.23
2022-08-02T23:56:41.490Z,75.18
2022-08-02T23:59:46.217Z,75.06
